sensor_id;sensor_type;location;lat;lon;timestamp;temperature;humidity
10986;DHT22;5546;48.714;8.738;2022-10-31T00:00:18;13.20;99.10
10986;DHT22;5546;48.714;8.738;2022-10-31T00:02:44;13.10;99.30
10986;DHT22;5546;48.714;8.738;2022-10-31T00:05:10;13.20;99.00
10986;DHT22;5546;48.714;8.738;2022-10-31T00:07:35;12.90;99.10
10986;DHT22;5546;48.714;8.738;2022-10-31T00:10:01;13.10;99.40
10986;DHT22;5546;48.714;8.738;2022-10-31T00:12:26;12.90;99.70
10986;DHT22;5546;48.714;8.738;2022-10-31T00:14:52;13.00;99.40
10986;DHT22;5546;48.714;8.738;2022-10-31T00:17:18;12.90;99.20
10986;DHT22;5546;48.714;8.738;2022-10-31T00:19:43;12.90;99.50
10986;DHT22;5546;48.714;8.738;2022-10-31T00:22:09;12.80;99.50
10986;DHT22;5546;48.714;8.738;2022-10-31T00:24:34;12.80;99.70
10986;DHT22;5546;48.714;8.738;2022-10-31T00:27:00;13.10;99.30
10986;DHT22;5546;48.714;8.738;2022-10-31T00:29:25;13.10;98.80
10986;DHT22;5546;48.714;8.738;2022-10-31T00:31:52;12.80;99.20
10986;DHT22;5546;48.714;8.738;2022-10-31T00:34:18;12.80;99.50
10986;DHT22;5546;48.714;8.738;2022-10-31T00:36:43;12.90;99.40
10986;DHT22;5546;48.714;8.738;2022-10-31T00:39:09;13.80;99.60
10986;DHT22;5546;48.714;8.738;2022-10-31T00:41:34;12.70;99.30
10986;DHT22;5546;48.714;8.738;2022-10-31T00:44:00;12.70;99.00
10986;DHT22;5546;48.714;8.738;2022-10-31T00:46:25;12.70;99.20
10986;DHT22;5546;48.714;8.738;2022-10-31T00:48:51;12.80;99.20
10986;DHT22;5546;48.714;8.738;2022-10-31T00:51:16;12.90;99.00
10986;DHT22;5546;48.714;8.738;2022-10-31T00:53:42;12.80;99.40
10986;DHT22;5546;48.714;8.738;2022-10-31T00:56:07;12.80;99.20
10986;DHT22;5546;48.714;8.738;2022-10-31T00:58:33;12.80;98.90
10986;DHT22;5546;48.714;8.738;2022-10-31T01:00:58;12.50;99.30
10986;DHT22;5546;48.714;8.738;2022-10-31T01:03:26;12.70;99.30
10986;DHT22;5546;48.714;8.738;2022-10-31T01:06:09;12.80;99.10
10986;DHT22;5546;48.714;8.738;2022-10-31T01:08:36;12.70;98.80
10986;DHT22;5546;48.714;8.738;2022-10-31T01:11:17;12.60;99.00
10986;DHT22;5546;48.714;8.738;2022-10-31T01:13:43;12.70;98.60
10986;DHT22;5546;48.714;8.738;2022-10-31T01:16:12;12.80;98.60
10986;DHT22;5546;48.714;8.738;2022-10-31T01:18:38;12.80;98.90
10986;DHT22;5546;48.714;8.738;2022-10-31T01:21:10;12.80;98.90
10986;DHT22;5546;48.714;8.738;2022-10-31T01:23:37;12.80;98.80
10986;DHT22;5546;48.714;8.738;2022-10-31T01:26:09;12.80;98.70
10986;DHT22;5546;48.714;8.738;2022-10-31T01:28:36;12.70;98.60
10986;DHT22;5546;48.714;8.738;2022-10-31T01:31:08;12.70;98.90
10986;DHT22;5546;48.714;8.738;2022-10-31T01:33:35;12.70;98.80
10986;DHT22;5546;48.714;8.738;2022-10-31T01:36:10;12.50;99.30
10986;DHT22;5546;48.714;8.738;2022-10-31T01:38:35;12.60;99.00
10986;DHT22;5546;48.714;8.738;2022-10-31T01:41:01;12.70;99.10
10986;DHT22;5546;48.714;8.738;2022-10-31T01:43:45;12.70;98.50
10986;DHT22;5546;48.714;8.738;2022-10-31T01:46:11;12.60;98.40
10986;DHT22;5546;48.714;8.738;2022-10-31T01:48:37;12.60;98.70
10986;DHT22;5546;48.714;8.738;2022-10-31T01:51:03;12.60;99.00
10986;DHT22;5546;48.714;8.738;2022-10-31T01:53:31;12.40;99.10
10986;DHT22;5546;48.714;8.738;2022-10-31T01:55:57;12.50;99.30
10986;DHT22;5546;48.714;8.738;2022-10-31T01:58:25;12.40;99.30
10986;DHT22;5546;48.714;8.738;2022-10-31T02:00:57;12.30;99.40
10986;DHT22;5546;48.714;8.738;2022-10-31T02:03:23;12.40;99.30
10986;DHT22;5546;48.714;8.738;2022-10-31T02:05:53;12.40;98.90
10986;DHT22;5546;48.714;8.738;2022-10-31T02:08:30;12.40;98.80
10986;DHT22;5546;48.714;8.738;2022-10-31T02:10:57;12.40;99.10
10986;DHT22;5546;48.714;8.738;2022-10-31T02:13:23;12.40;99.10
10986;DHT22;5546;48.714;8.738;2022-10-31T02:15:53;12.40;98.50
10986;DHT22;5546;48.714;8.738;2022-10-31T02:18:19;12.30;98.60
10986;DHT22;5546;48.714;8.738;2022-10-31T02:31:36;12.20;98.90
10986;DHT22;5546;48.714;8.738;2022-10-31T02:37:07;12.10;99.10
10986;DHT22;5546;48.714;8.738;2022-10-31T02:39:54;12.20;99.10
10986;DHT22;5546;48.714;8.738;2022-10-31T02:42:24;12.30;99.10
10986;DHT22;5546;48.714;8.738;2022-10-31T02:45:07;12.20;98.70
10986;DHT22;5546;48.714;8.738;2022-10-31T02:47:42;12.10;98.90
10986;DHT22;5546;48.714;8.738;2022-10-31T02:50:23;12.10;98.60
10986;DHT22;5546;48.714;8.738;2022-10-31T02:52:52;12.10;98.80
10986;DHT22;5546;48.714;8.738;2022-10-31T02:57:51;11.90;98.70
10986;DHT22;5546;48.714;8.738;2022-10-31T03:00:18;11.90;98.60
10986;DHT22;5546;48.714;8.738;2022-10-31T03:03:14;11.90;98.90
10986;DHT22;5546;48.714;8.738;2022-10-31T03:05:50;11.90;99.20
10986;DHT22;5546;48.714;8.738;2022-10-31T03:11:17;11.90;98.80
10986;DHT22;5546;48.714;8.738;2022-10-31T03:14:05;12.00;98.70
10986;DHT22;5546;48.714;8.738;2022-10-31T03:16:49;11.90;98.90
10986;DHT22;5546;48.714;8.738;2022-10-31T03:19:32;11.70;99.20
10986;DHT22;5546;48.714;8.738;2022-10-31T03:22:03;11.80;99.30
10986;DHT22;5546;48.714;8.738;2022-10-31T03:24:32;11.80;99.30
10986;DHT22;5546;48.714;8.738;2022-10-31T03:27:00;11.50;99.60
10986;DHT22;5546;48.714;8.738;2022-10-31T03:29:30;11.70;99.30
10986;DHT22;5546;48.714;8.738;2022-10-31T03:32:02;11.80;99.60
10986;DHT22;5546;48.714;8.738;2022-10-31T03:34:30;11.80;99.40
10986;DHT22;5546;48.714;8.738;2022-10-31T03:36:58;11.80;99.10
10986;DHT22;5546;48.714;8.738;2022-10-31T03:39:24;11.40;99.30
10986;DHT22;5546;48.714;8.738;2022-10-31T03:41:59;11.10;99.90
10986;DHT22;5546;48.714;8.738;2022-10-31T03:44:26;11.20;99.90
10986;DHT22;5546;48.714;8.738;2022-10-31T03:46:53;11.30;99.80
10986;DHT22;5546;48.714;8.738;2022-10-31T03:49:19;11.50;99.50
10986;DHT22;5546;48.714;8.738;2022-10-31T03:54:34;11.70;99.40
10986;DHT22;5546;48.714;8.738;2022-10-31T03:57:14;11.70;99.10
10986;DHT22;5546;48.714;8.738;2022-10-31T03:59:47;11.80;98.90
10986;DHT22;5546;48.714;8.738;2022-10-31T04:02:19;11.70;99.00
10986;DHT22;5546;48.714;8.738;2022-10-31T04:04:47;11.70;98.90
10986;DHT22;5546;48.714;8.738;2022-10-31T04:07:14;11.60;99.10
10986;DHT22;5546;48.714;8.738;2022-10-31T04:09:43;11.50;99.50
10986;DHT22;5546;48.714;8.738;2022-10-31T04:12:11;11.40;99.80
10986;DHT22;5546;48.714;8.738;2022-10-31T04:14:41;12.80;99.90
10986;DHT22;5546;48.714;8.738;2022-10-31T04:17:11;11.20;99.90
10986;DHT22;5546;48.714;8.738;2022-10-31T04:19:38;11.00;99.90
10986;DHT22;5546;48.714;8.738;2022-10-31T04:22:03;11.10;99.90
10986;DHT22;5546;48.714;8.738;2022-10-31T04:24:29;11.30;99.90
10986;DHT22;5546;48.714;8.738;2022-10-31T04:26:54;11.60;99.20
10986;DHT22;5546;48.714;8.738;2022-10-31T04:29:20;11.60;99.50
10986;DHT22;5546;48.714;8.738;2022-10-31T04:31:45;11.70;99.40
10986;DHT22;5546;48.714;8.738;2022-10-31T04:34:11;11.80;98.70
10986;DHT22;5546;48.714;8.738;2022-10-31T04:36:36;11.90;99.00
10986;DHT22;5546;48.714;8.738;2022-10-31T04:39:02;11.80;99.30
10986;DHT22;5546;48.714;8.738;2022-10-31T04:41:27;11.50;99.50
10986;DHT22;5546;48.714;8.738;2022-10-31T04:43:53;11.30;99.60
10986;DHT22;5546;48.714;8.738;2022-10-31T04:46:19;11.20;99.90
10986;DHT22;5546;48.714;8.738;2022-10-31T04:48:44;11.40;99.70
10986;DHT22;5546;48.714;8.738;2022-10-31T04:51:10;11.80;98.80
10986;DHT22;5546;48.714;8.738;2022-10-31T04:53:35;11.80;99.00
10986;DHT22;5546;48.714;8.738;2022-10-31T04:56:01;11.60;98.80
10986;DHT22;5546;48.714;8.738;2022-10-31T04:58:27;11.60;99.10
10986;DHT22;5546;48.714;8.738;2022-10-31T05:00:53;11.60;99.30
10986;DHT22;5546;48.714;8.738;2022-10-31T05:03:19;11.40;99.60
10986;DHT22;5546;48.714;8.738;2022-10-31T05:05:44;11.60;99.70
10986;DHT22;5546;48.714;8.738;2022-10-31T05:08:10;11.60;99.10
10986;DHT22;5546;48.714;8.738;2022-10-31T05:10:36;11.40;99.30
10986;DHT22;5546;48.714;8.738;2022-10-31T05:13:02;11.40;99.20
10986;DHT22;5546;48.714;8.738;2022-10-31T05:15:28;11.00;99.70
10986;DHT22;5546;48.714;8.738;2022-10-31T05:17:54;10.90;99.90
10986;DHT22;5546;48.714;8.738;2022-10-31T05:20:22;10.90;99.90
10986;DHT22;5546;48.714;8.738;2022-10-31T05:22:50;11.20;99.80
10986;DHT22;5546;48.714;8.738;2022-10-31T05:25:16;11.30;99.60
10986;DHT22;5546;48.714;8.738;2022-10-31T05:27:44;11.60;98.40
10986;DHT22;5546;48.714;8.738;2022-10-31T05:30:13;11.60;98.50
10986;DHT22;5546;48.714;8.738;2022-10-31T05:32:46;11.60;98.70
10986;DHT22;5546;48.714;8.738;2022-10-31T05:35:15;11.50;98.90
10986;DHT22;5546;48.714;8.738;2022-10-31T05:37:41;11.50;98.90
10986;DHT22;5546;48.714;8.738;2022-10-31T05:40:08;11.30;98.70
10986;DHT22;5546;48.714;8.738;2022-10-31T05:42:34;11.30;99.00
10986;DHT22;5546;48.714;8.738;2022-10-31T05:45:00;11.00;99.20
10986;DHT22;5546;48.714;8.738;2022-10-31T05:47:25;11.00;99.50
10986;DHT22;5546;48.714;8.738;2022-10-31T05:49:51;11.10;99.00
10986;DHT22;5546;48.714;8.738;2022-10-31T05:52:17;11.10;99.20
10986;DHT22;5546;48.714;8.738;2022-10-31T05:54:42;11.10;99.30
10986;DHT22;5546;48.714;8.738;2022-10-31T05:57:08;11.10;98.90
10986;DHT22;5546;48.714;8.738;2022-10-31T05:59:33;11.00;99.20
10986;DHT22;5546;48.714;8.738;2022-10-31T06:01:59;11.20;99.20
10986;DHT22;5546;48.714;8.738;2022-10-31T06:04:24;11.30;99.00
10986;DHT22;5546;48.714;8.738;2022-10-31T06:06:50;11.20;99.00
10986;DHT22;5546;48.714;8.738;2022-10-31T06:09:15;11.00;99.20
10986;DHT22;5546;48.714;8.738;2022-10-31T06:11:41;11.10;99.20
10986;DHT22;5546;48.714;8.738;2022-10-31T06:14:07;11.20;98.60
10986;DHT22;5546;48.714;8.738;2022-10-31T06:16:32;11.20;98.80
10986;DHT22;5546;48.714;8.738;2022-10-31T06:18:58;11.00;99.00
10986;DHT22;5546;48.714;8.738;2022-10-31T06:21:23;11.00;99.30
10986;DHT22;5546;48.714;8.738;2022-10-31T06:23:49;11.30;98.90
10986;DHT22;5546;48.714;8.738;2022-10-31T06:26:14;11.30;98.40
10986;DHT22;5546;48.714;8.738;2022-10-31T06:28:40;11.30;98.80
10986;DHT22;5546;48.714;8.738;2022-10-31T06:31:05;11.20;98.90
10986;DHT22;5546;48.714;8.738;2022-10-31T06:33:31;11.00;99.20
10986;DHT22;5546;48.714;8.738;2022-10-31T06:35:57;11.20;99.10
10986;DHT22;5546;48.714;8.738;2022-10-31T06:38:22;11.10;99.40
10986;DHT22;5546;48.714;8.738;2022-10-31T06:40:48;11.00;99.50
10986;DHT22;5546;48.714;8.738;2022-10-31T06:43:13;10.90;99.50
10986;DHT22;5546;48.714;8.738;2022-10-31T06:45:40;10.90;99.70
10986;DHT22;5546;48.714;8.738;2022-10-31T06:50:31;10.90;99.50
10986;DHT22;5546;48.714;8.738;2022-10-31T06:52:58;10.90;99.90
10986;DHT22;5546;48.714;8.738;2022-10-31T06:55:24;10.90;99.80
10986;DHT22;5546;48.714;8.738;2022-10-31T06:57:54;11.00;99.70
10986;DHT22;5546;48.714;8.738;2022-10-31T07:00:20;10.70;99.90
10986;DHT22;5546;48.714;8.738;2022-10-31T07:03:00;10.90;99.70
10986;DHT22;5546;48.714;8.738;2022-10-31T07:05:27;11.00;99.90
10986;DHT22;5546;48.714;8.738;2022-10-31T07:07:58;11.10;99.30
10986;DHT22;5546;48.714;8.738;2022-10-31T07:10:26;11.10;99.70
10986;DHT22;5546;48.714;8.738;2022-10-31T07:12:56;10.80;99.90
10986;DHT22;5546;48.714;8.738;2022-10-31T07:15:22;10.90;99.90
10986;DHT22;5546;48.714;8.738;2022-10-31T07:17:48;11.00;99.90
10986;DHT22;5546;48.714;8.738;2022-10-31T07:20:13;10.80;99.90
10986;DHT22;5546;48.714;8.738;2022-10-31T07:22:39;11.00;99.90
10986;DHT22;5546;48.714;8.738;2022-10-31T07:25:05;11.10;99.60
10986;DHT22;5546;48.714;8.738;2022-10-31T07:27:41;11.10;99.90
10986;DHT22;5546;48.714;8.738;2022-10-31T07:30:08;11.50;99.30
10986;DHT22;5546;48.714;8.738;2022-10-31T07:32:42;11.80;99.00
10986;DHT22;5546;48.714;8.738;2022-10-31T07:35:08;12.20;98.60
10986;DHT22;5546;48.714;8.738;2022-10-31T07:37:34;12.30;98.80
10986;DHT22;5546;48.714;8.738;2022-10-31T07:40:00;12.70;98.30
10986;DHT22;5546;48.714;8.738;2022-10-31T07:42:25;12.90;97.70
10986;DHT22;5546;48.714;8.738;2022-10-31T07:44:51;13.00;97.70
10986;DHT22;5546;48.714;8.738;2022-10-31T07:47:16;13.30;97.40
10986;DHT22;5546;48.714;8.738;2022-10-31T07:49:42;13.80;96.40
10986;DHT22;5546;48.714;8.738;2022-10-31T07:52:07;13.80;96.70
10986;DHT22;5546;48.714;8.738;2022-10-31T07:54:33;14.20;95.30
10986;DHT22;5546;48.714;8.738;2022-10-31T07:56:58;14.10;95.60
10986;DHT22;5546;48.714;8.738;2022-10-31T07:59:24;14.30;95.40
10986;DHT22;5546;48.714;8.738;2022-10-31T08:01:51;14.30;95.60
10986;DHT22;5546;48.714;8.738;2022-10-31T08:04:16;14.60;95.00
10986;DHT22;5546;48.714;8.738;2022-10-31T08:06:42;15.00;94.50
10986;DHT22;5546;48.714;8.738;2022-10-31T08:09:07;15.50;93.30
10986;DHT22;5546;48.714;8.738;2022-10-31T08:11:33;15.60;93.70
10986;DHT22;5546;48.714;8.738;2022-10-31T08:13:58;15.90;93.00
10986;DHT22;5546;48.714;8.738;2022-10-31T08:16:23;16.10;92.30
10986;DHT22;5546;48.714;8.738;2022-10-31T08:18:49;16.00;92.50
10986;DHT22;5546;48.714;8.738;2022-10-31T08:21:14;16.00;92.00
10986;DHT22;5546;48.714;8.738;2022-10-31T08:23:40;16.00;92.40
10986;DHT22;5546;48.714;8.738;2022-10-31T08:26:05;15.70;92.90
10986;DHT22;5546;48.714;8.738;2022-10-31T08:28:31;15.60;93.20
10986;DHT22;5546;48.714;8.738;2022-10-31T08:30:58;15.60;94.00
10986;DHT22;5546;48.714;8.738;2022-10-31T08:33:23;15.60;93.30
10986;DHT22;5546;48.714;8.738;2022-10-31T08:35:49;15.60;93.50
10986;DHT22;5546;48.714;8.738;2022-10-31T08:38:15;15.50;93.80
10986;DHT22;5546;48.714;8.738;2022-10-31T08:40:41;15.80;93.30
10986;DHT22;5546;48.714;8.738;2022-10-31T08:43:13;15.80;93.60
10986;DHT22;5546;48.714;8.738;2022-10-31T08:45:40;15.60;94.10
10986;DHT22;5546;48.714;8.738;2022-10-31T08:48:09;15.50;94.00
10986;DHT22;5546;48.714;8.738;2022-10-31T08:50:35;15.50;94.20
10986;DHT22;5546;48.714;8.738;2022-10-31T08:53:03;15.40;94.80
10986;DHT22;5546;48.714;8.738;2022-10-31T08:55:29;15.90;94.20
10986;DHT22;5546;48.714;8.738;2022-10-31T08:57:56;16.20;93.80
10986;DHT22;5546;48.714;8.738;2022-10-31T09:00:21;16.60;93.40
10986;DHT22;5546;48.714;8.738;2022-10-31T09:02:47;16.90;92.50
10986;DHT22;5546;48.714;8.738;2022-10-31T09:05:12;17.10;92.40
10986;DHT22;5546;48.714;8.738;2022-10-31T09:07:38;17.10;92.60
10986;DHT22;5546;48.714;8.738;2022-10-31T09:10:03;17.40;91.90
10986;DHT22;5546;48.714;8.738;2022-10-31T09:12:29;17.00;92.70
10986;DHT22;5546;48.714;8.738;2022-10-31T09:14:54;17.00;93.00
10986;DHT22;5546;48.714;8.738;2022-10-31T09:17:20;16.90;93.10
10986;DHT22;5546;48.714;8.738;2022-10-31T09:19:45;16.90;93.40
10986;DHT22;5546;48.714;8.738;2022-10-31T09:22:11;18.00;91.80
10986;DHT22;5546;48.714;8.738;2022-10-31T09:24:36;18.00;92.00
10986;DHT22;5546;48.714;8.738;2022-10-31T09:27:02;19.20;90.40
10986;DHT22;5546;48.714;8.738;2022-10-31T09:29:27;20.10;89.00
10986;DHT22;5546;48.714;8.738;2022-10-31T09:31:53;20.90;86.80
10986;DHT22;5546;48.714;8.738;2022-10-31T09:36:47;22.30;82.80
10986;DHT22;5546;48.714;8.738;2022-10-31T09:39:12;22.90;81.20
10986;DHT22;5546;48.714;8.738;2022-10-31T09:44:43;23.60;77.30
10986;DHT22;5546;48.714;8.738;2022-10-31T09:50:22;24.20;77.20
10986;DHT22;5546;48.714;8.738;2022-10-31T09:53:00;25.20;75.10
10986;DHT22;5546;48.714;8.738;2022-10-31T09:55:36;26.00;72.00
10986;DHT22;5546;48.714;8.738;2022-10-31T09:58:02;26.70;70.20
10986;DHT22;5546;48.714;8.738;2022-10-31T10:00:29;27.50;68.00
10986;DHT22;5546;48.714;8.738;2022-10-31T10:03:01;27.80;66.70
10986;DHT22;5546;48.714;8.738;2022-10-31T10:05:37;28.50;63.50
10986;DHT22;5546;48.714;8.738;2022-10-31T10:08:16;28.50;62.40
10986;DHT22;5546;48.714;8.738;2022-10-31T10:10:55;28.50;62.20
10986;DHT22;5546;48.714;8.738;2022-10-31T10:16:22;28.20;62.50
10986;DHT22;5546;48.714;8.738;2022-10-31T10:19:10;27.30;64.20
10986;DHT22;5546;48.714;8.738;2022-10-31T10:21:50;26.60;66.00
10986;DHT22;5546;48.714;8.738;2022-10-31T10:24:25;26.70;66.20
10986;DHT22;5546;48.714;8.738;2022-10-31T10:29:46;26.40;66.40
10986;DHT22;5546;48.714;8.738;2022-10-31T10:32:41;25.80;68.30
10986;DHT22;5546;48.714;8.738;2022-10-31T10:35:24;25.90;68.40
10986;DHT22;5546;48.714;8.738;2022-10-31T10:38:10;25.90;68.80
10986;DHT22;5546;48.714;8.738;2022-10-31T10:40:37;25.90;68.80
10986;DHT22;5546;48.714;8.738;2022-10-31T10:43:35;25.90;70.00
10986;DHT22;5546;48.714;8.738;2022-10-31T10:49:17;26.40;67.80
10986;DHT22;5546;48.714;8.738;2022-10-31T11:02:27;27.00;67.70
10986;DHT22;5546;48.714;8.738;2022-10-31T11:04:57;27.00;67.90
10986;DHT22;5546;48.714;8.738;2022-10-31T11:07:23;26.20;69.00
10986;DHT22;5546;48.714;8.738;2022-10-31T11:12:33;25.00;71.80
10986;DHT22;5546;48.714;8.738;2022-10-31T11:15:07;24.50;74.90
10986;DHT22;5546;48.714;8.738;2022-10-31T11:17:41;24.10;74.80
10986;DHT22;5546;48.714;8.738;2022-10-31T11:22:40;23.10;80.50
10986;DHT22;5546;48.714;8.738;2022-10-31T11:27:44;24.20;78.60
10986;DHT22;5546;48.714;8.738;2022-10-31T11:30:12;24.30;79.00
10986;DHT22;5546;48.714;8.738;2022-10-31T11:32:49;24.80;77.40
10986;DHT22;5546;48.714;8.738;2022-10-31T11:35:20;25.20;75.60
10986;DHT22;5546;48.714;8.738;2022-10-31T11:37:48;24.80;74.70
10986;DHT22;5546;48.714;8.738;2022-10-31T11:40:18;24.50;76.40
10986;DHT22;5546;48.714;8.738;2022-10-31T11:42:44;23.10;76.80
10986;DHT22;5546;48.714;8.738;2022-10-31T11:47:50;25.00;78.20
10986;DHT22;5546;48.714;8.738;2022-10-31T11:50:32;25.30;77.90
10986;DHT22;5546;48.714;8.738;2022-10-31T11:53:00;25.70;77.40
10986;DHT22;5546;48.714;8.738;2022-10-31T11:55:32;26.10;74.40
10986;DHT22;5546;48.714;8.738;2022-10-31T11:57:58;26.50;74.60
10986;DHT22;5546;48.714;8.738;2022-10-31T12:00:27;26.90;72.90
10986;DHT22;5546;48.714;8.738;2022-10-31T12:05:56;27.20;74.90
10986;DHT22;5546;48.714;8.738;2022-10-31T12:08:25;27.10;75.00
10986;DHT22;5546;48.714;8.738;2022-10-31T12:11:15;26.70;76.10
10986;DHT22;5546;48.714;8.738;2022-10-31T12:14:01;26.60;76.40
10986;DHT22;5546;48.714;8.738;2022-10-31T12:16:35;26.50;77.70
10986;DHT22;5546;48.714;8.738;2022-10-31T12:19:05;26.30;78.60
10986;DHT22;5546;48.714;8.738;2022-10-31T12:38:27;23.90;86.20
10986;DHT22;5546;48.714;8.738;2022-10-31T12:41:11;23.70;88.50
10986;DHT22;5546;48.714;8.738;2022-10-31T12:47:03;23.50;89.80
10986;DHT22;5546;48.714;8.738;2022-10-31T12:49:39;23.50;89.80
10986;DHT22;5546;48.714;8.738;2022-10-31T12:55:09;22.40;92.20
10986;DHT22;5546;48.714;8.738;2022-10-31T12:57:40;22.70;91.90
10986;DHT22;5546;48.714;8.738;2022-10-31T13:00:15;22.80;91.70
10986;DHT22;5546;48.714;8.738;2022-10-31T13:02:48;22.80;91.60
10986;DHT22;5546;48.714;8.738;2022-10-31T13:07:58;23.00;91.50
10986;DHT22;5546;48.714;8.738;2022-10-31T13:10:47;23.40;91.50
10986;DHT22;5546;48.714;8.738;2022-10-31T13:16:18;24.30;89.10
10986;DHT22;5546;48.714;8.738;2022-10-31T13:18:48;24.50;86.90
10986;DHT22;5546;48.714;8.738;2022-10-31T13:21:27;24.00;89.90
10986;DHT22;5546;48.714;8.738;2022-10-31T13:23:58;23.80;90.10
10986;DHT22;5546;48.714;8.738;2022-10-31T13:26:45;23.90;89.70
10986;DHT22;5546;48.714;8.738;2022-10-31T13:29:33;23.80;90.20
10986;DHT22;5546;48.714;8.738;2022-10-31T13:32:04;23.70;89.90
10986;DHT22;5546;48.714;8.738;2022-10-31T13:34:37;23.10;90.60
10986;DHT22;5546;48.714;8.738;2022-10-31T13:37:27;22.70;91.90
10986;DHT22;5546;48.714;8.738;2022-10-31T13:40:12;22.90;91.80
10986;DHT22;5546;48.714;8.738;2022-10-31T13:43:06;22.60;91.90
10986;DHT22;5546;48.714;8.738;2022-10-31T13:45:35;22.20;92.40
10986;DHT22;5546;48.714;8.738;2022-10-31T13:48:18;22.20;92.60
10986;DHT22;5546;48.714;8.738;2022-10-31T13:50:58;25.60;92.10
10986;DHT22;5546;48.714;8.738;2022-10-31T13:56:31;21.50;92.00
10986;DHT22;5546;48.714;8.738;2022-10-31T14:01:59;21.60;92.90
10986;DHT22;5546;48.714;8.738;2022-10-31T14:04:49;21.70;92.20
10986;DHT22;5546;48.714;8.738;2022-10-31T14:07:16;21.90;92.30
10986;DHT22;5546;48.714;8.738;2022-10-31T14:10:07;22.10;90.80
10986;DHT22;5546;48.714;8.738;2022-10-31T14:12:46;21.90;91.80
10986;DHT22;5546;48.714;8.738;2022-10-31T14:15:42;22.10;92.10
10986;DHT22;5546;48.714;8.738;2022-10-31T14:18:24;22.40;91.30
10986;DHT22;5546;48.714;8.738;2022-10-31T14:20:50;22.20;92.00
10986;DHT22;5546;48.714;8.738;2022-10-31T14:29:23;22.30;91.70
10986;DHT22;5546;48.714;8.738;2022-10-31T14:34:57;21.40;93.60
10986;DHT22;5546;48.714;8.738;2022-10-31T14:37:53;21.00;94.20
10986;DHT22;5546;48.714;8.738;2022-10-31T14:43:29;20.20;96.10
10986;DHT22;5546;48.714;8.738;2022-10-31T14:51:54;20.50;94.20
10986;DHT22;5546;48.714;8.738;2022-10-31T14:54:29;20.40;94.70
10986;DHT22;5546;48.714;8.738;2022-10-31T14:57:00;20.20;95.10
10986;DHT22;5546;48.714;8.738;2022-10-31T14:59:31;20.10;95.00
10986;DHT22;5546;48.714;8.738;2022-10-31T15:02:18;20.20;95.20
10986;DHT22;5546;48.714;8.738;2022-10-31T15:04:46;20.20;95.40
10986;DHT22;5546;48.714;8.738;2022-10-31T15:07:24;20.20;95.40
10986;DHT22;5546;48.714;8.738;2022-10-31T15:09:58;20.20;95.50
10986;DHT22;5546;48.714;8.738;2022-10-31T15:12:29;19.80;96.30
10986;DHT22;5546;48.714;8.738;2022-10-31T15:14:55;19.80;96.60
10986;DHT22;5546;48.714;8.738;2022-10-31T15:17:22;20.00;96.60
10986;DHT22;5546;48.714;8.738;2022-10-31T15:19:49;19.80;96.50
10986;DHT22;5546;48.714;8.738;2022-10-31T15:22:17;19.80;96.80
10986;DHT22;5546;48.714;8.738;2022-10-31T15:24:44;19.70;96.90
10986;DHT22;5546;48.714;8.738;2022-10-31T15:27:17;19.80;96.90
10986;DHT22;5546;48.714;8.738;2022-10-31T15:29:50;19.50;97.20
10986;DHT22;5546;48.714;8.738;2022-10-31T15:32:24;19.50;97.40
10986;DHT22;5546;48.714;8.738;2022-10-31T15:34:51;19.70;96.80
10986;DHT22;5546;48.714;8.738;2022-10-31T15:37:19;19.80;96.90
10986;DHT22;5546;48.714;8.738;2022-10-31T15:39:46;19.70;96.70
10986;DHT22;5546;48.714;8.738;2022-10-31T15:43:03;19.50;97.50
10986;DHT22;5546;48.714;8.738;2022-10-31T15:45:23;19.70;97.20
10986;DHT22;5546;48.714;8.738;2022-10-31T15:48:04;19.70;97.00
10986;DHT22;5546;48.714;8.738;2022-10-31T15:50:46;19.60;96.90
10986;DHT22;5546;48.714;8.738;2022-10-31T15:53:23;19.60;96.90
10986;DHT22;5546;48.714;8.738;2022-10-31T15:55:58;19.40;97.20
10986;DHT22;5546;48.714;8.738;2022-10-31T15:58:25;18.80;97.70
10986;DHT22;5546;48.714;8.738;2022-10-31T16:01:05;18.60;97.90
10986;DHT22;5546;48.714;8.738;2022-10-31T16:03:32;18.40;98.40
10986;DHT22;5546;48.714;8.738;2022-10-31T16:06:03;18.30;98.70
10986;DHT22;5546;48.714;8.738;2022-10-31T16:13:37;18.10;98.80
10986;DHT22;5546;48.714;8.738;2022-10-31T16:16:14;17.60;99.90
10986;DHT22;5546;48.714;8.738;2022-10-31T16:18:41;18.00;99.50
10986;DHT22;5546;48.714;8.738;2022-10-31T16:21:08;17.90;99.00
10986;DHT22;5546;48.714;8.738;2022-10-31T16:23:37;18.30;98.00
10986;DHT22;5546;48.714;8.738;2022-10-31T16:26:07;18.30;98.20
10986;DHT22;5546;48.714;8.738;2022-10-31T16:28:33;18.20;98.00
10986;DHT22;5546;48.714;8.738;2022-10-31T16:31:00;18.30;98.10
10986;DHT22;5546;48.714;8.738;2022-10-31T16:33:29;17.80;98.50
10986;DHT22;5546;48.714;8.738;2022-10-31T16:36:01;17.80;98.70
10986;DHT22;5546;48.714;8.738;2022-10-31T16:38:27;17.90;98.50
10986;DHT22;5546;48.714;8.738;2022-10-31T16:40:53;18.00;98.30
10986;DHT22;5546;48.714;8.738;2022-10-31T16:43:20;17.90;98.00
10986;DHT22;5546;48.714;8.738;2022-10-31T16:45:48;17.90;97.70
10986;DHT22;5546;48.714;8.738;2022-10-31T16:48:19;17.90;98.00
10986;DHT22;5546;48.714;8.738;2022-10-31T16:50:47;17.80;98.20
10986;DHT22;5546;48.714;8.738;2022-10-31T16:53:14;18.00;98.00
10986;DHT22;5546;48.714;8.738;2022-10-31T16:55:59;17.80;97.90
10986;DHT22;5546;48.714;8.738;2022-10-31T16:58:29;18.00;97.70
10986;DHT22;5546;48.714;8.738;2022-10-31T17:00:55;17.90;98.00
10986;DHT22;5546;48.714;8.738;2022-10-31T17:03:21;17.30;99.10
10986;DHT22;5546;48.714;8.738;2022-10-31T17:05:46;17.40;99.50
10986;DHT22;5546;48.714;8.738;2022-10-31T17:08:12;17.80;98.80
10986;DHT22;5546;48.714;8.738;2022-10-31T17:10:38;17.80;98.50
10986;DHT22;5546;48.714;8.738;2022-10-31T17:13:07;17.90;98.70
10986;DHT22;5546;48.714;8.738;2022-10-31T17:15:40;17.90;98.70
10986;DHT22;5546;48.714;8.738;2022-10-31T17:18:08;17.70;98.40
10986;DHT22;5546;48.714;8.738;2022-10-31T17:20:34;17.60;98.60
10986;DHT22;5546;48.714;8.738;2022-10-31T17:22:59;17.60;98.40
10986;DHT22;5546;48.714;8.738;2022-10-31T17:25:27;17.60;98.40
10986;DHT22;5546;48.714;8.738;2022-10-31T17:27:53;17.60;98.70
10986;DHT22;5546;48.714;8.738;2022-10-31T17:30:20;17.60;98.80
10986;DHT22;5546;48.714;8.738;2022-10-31T17:32:46;17.60;98.70
10986;DHT22;5546;48.714;8.738;2022-10-31T17:35:13;17.40;99.00
10986;DHT22;5546;48.714;8.738;2022-10-31T17:37:40;17.20;99.20
10986;DHT22;5546;48.714;8.738;2022-10-31T17:40:08;17.10;99.20
10986;DHT22;5546;48.714;8.738;2022-10-31T17:42:33;17.10;99.30
10986;DHT22;5546;48.714;8.738;2022-10-31T17:44:59;17.10;98.70
10986;DHT22;5546;48.714;8.738;2022-10-31T17:47:24;17.20;98.90
10986;DHT22;5546;48.714;8.738;2022-10-31T17:49:50;17.00;99.10
10986;DHT22;5546;48.714;8.738;2022-10-31T17:52:18;16.90;98.90
10986;DHT22;5546;48.714;8.738;2022-10-31T17:54:43;16.80;98.80
10986;DHT22;5546;48.714;8.738;2022-10-31T17:57:09;16.60;99.10
10986;DHT22;5546;48.714;8.738;2022-10-31T17:59:34;16.50;99.30
10986;DHT22;5546;48.714;8.738;2022-10-31T18:02:00;16.50;99.60
10986;DHT22;5546;48.714;8.738;2022-10-31T18:04:27;16.70;99.50